| Date | Time | Temp. (oF) | Dew Point (oF) | Rel. Hum. (%) | Press. (in.) | Wind Dir. | Wind Speed (mph) | Hourly Rainfall (in.) |
|
|---|---|---|---|---|---|---|---|---|---|
| 1 | 06/03 | 00:00 | 55 | 54 | 100 | 30.11 | ENE | 0 | 0.00 |
| 2 | 06/02 | 23:00 | 55 | 54 | 100 | 30.10 | E | 0 | 0.01 |
| 3 | 06/02 | 22:00 | 55 | 54 | 100 | 30.10 | ENE | 3 | 0.02 |
| 4 | 06/02 | 21:00 | 55 | 54 | 100 | 30.09 | ENE | 0 | 0.01 |
| 5 | 06/02 | 20:00 | 56 | 55 | 100 | 30.07 | SE | 3 | 0.01 |
| 6 | 06/02 | 19:00 | 56 | 55 | 100 | 30.07 | E | 4 | 0.00 |
| 7 | miss | miss | miss | miss | miss | miss | miss | miss | |
| 8 | 06/02 | 17:00 | 56 | 55 | 100 | 30.04 | ENE | 2 | 0.01 |
| 9 | 06/02 | 16:00 | 55 | 54 | 100 | 30.05 | ENE | 4 | 0.02 |
| 10 | 06/02 | 15:00 | 55 | 54 | 100 | 30.05 | NNE | 5 | 0.02 |
| 11 | 06/02 | 14:00 | 54 | 54 | 100 | 30.07 | NNE | 5 | 0.03 |
| 12 | 06/02 | 13:00 | 54 | 54 | 100 | 30.07 | NE | 3 | 0.00 |
| 13 | miss | miss | miss | miss | miss | miss | miss | miss | |
| 14 | 06/02 | 07:48 | 52 | 50 | 95 | 30.08 | NNE | 5 | 0.00 |
| 15 | miss | miss | miss | miss | miss | miss | miss | miss | |
| 16 | 06/02 | 07:48 | 52 | 50 | 95 | 30.08 | NNE | 5 | 0.00 |
| 17 | miss | miss | miss | miss | miss | miss | miss | miss | |
| 18 | 06/01 | 17:27 | 67 | 65 | 94 | 29.97 | NE | 12 | 0.00 |
| 19 | miss | miss | miss | miss | miss | miss | miss | miss | |
| 20 | 06/01 | 17:25 | 67 | 65 | 94 | 29.97 | NNE | 10 | 0.00 |
| 21 | miss | miss | miss | miss | miss | miss | miss | miss | |
| 22 | 06/01 | 17:23 | 67 | 65 | 94 | 29.97 | NNE | 11 | 0.00 |
| 23 | miss | miss | miss | miss | miss | miss | miss | miss | |
| 24 | 06/01 | 17:21 | 67 | 65 | 94 | 29.97 | ENE | 4 | 0.00 |
| 25 | miss | miss | miss | miss | miss | miss | miss | miss | |
| 26 | 06/01 | 17:20 | 67 | 65 | 94 | 29.97 | NNE | 6 | 0.00 |
| 27 | miss | miss | miss | miss | miss | miss | miss | miss | |
| 28 | 06/01 | 17:20 | 67 | 65 | 94 | 29.97 | NNE | 6 | 0.00 |
| 29 | miss | miss | miss | miss | miss | miss | miss | miss | |
| 30 | 06/01 | 17:20 | 67 | 65 | 94 | 29.97 | NNE | 6 | 0.00 |
| 31 | miss | miss | miss | miss | miss | miss | miss | miss | |
| 32 | 06/01 | 17:00 | 68 | 66 | 94 | 29.96 | E | 11 | 0.00 |
| 33 | 06/01 | 16:00 | 69 | 66 | 93 | 29.96 | ENE | 6 | 0.66 |
| 34 | 06/01 | 15:00 | 73 | 69 | 89 | 29.95 | NNE | 11 | 0.01 |
| 35 | 06/01 | 14:00 | 79 | 72 | 81 | 29.96 | ESE | 8 | 0.00 |
| 36 | 06/01 | 13:00 | 79 | 70 | 76 | 29.98 | NNE | 2 | 0.00 |
| 37 | 06/01 | 12:00 | 78 | 70 | 78 | 29.99 | ENE | 0 | 0.00 |
| 38 | 06/01 | 11:00 | 77 | 72 | 86 | 29.99 | NE | 2 | 0.00 |
| 39 | 06/01 | 10:00 | 73 | 71 | 94 | 30.00 | SSW | 3 | 0.00 |
| 40 | 06/01 | 09:00 | 70 | 66 | 90 | 30.00 | ESE | 0 | 0.00 |
| 41 | 06/01 | 08:00 | 69 | 65 | 90 | 30.00 | E | 0 | 0.00 |
| 42 | 06/01 | 07:00 | 68 | 65 | 91 | 30.00 | ENE | 0 | 0.00 |
| 43 | 06/01 | 06:00 | 67 | 64 | 92 | 29.98 | SE | 0 | 0.00 |
| 44 | 06/01 | 05:00 | 67 | 64 | 92 | 29.97 | NE | 0 | 0.06 |
| 45 | 06/01 | 04:00 | 67 | 64 | 93 | 29.98 | N | 0 | 0.00 |
| 46 | 06/01 | 03:00 | 66 | 64 | 94 | 29.98 | SE | 0 | 0.00 |
| 47 | 06/01 | 02:00 | 66 | 64 | 94 | 29.97 | ESE | 2 | 0.16 |
| 48 | 06/01 | 01:00 | 66 | 64 | 94 | 30.00 | SSE | 0 | 0.69 |
| 49 | 06/01 | 00:00 | 67 | 63 | 89 | 30.01 | WSW | 6 | 0.00 |
| 50 | 05/31 | 23:00 | 73 | 67 | 84 | 29.94 | S | 9 | 0.00 |
| 51 | 05/31 | 22:00 | 76 | 67 | 74 | 29.95 | S | 7 | 0.00 |
| 52 | 05/31 | 21:00 | 78 | 68 | 74 | 29.94 | SSW | 3 | 0.00 |
| 53 | 05/31 | 20:00 | 79 | 68 | 70 | 29.92 | S | 11 | 0.00 |
| 54 | 05/31 | 19:00 | 80 | 68 | 69 | 29.91 | SSE | 8 | 0.00 |
| 55 | 05/31 | 18:00 | 82 | 68 | 65 | 29.89 | SSE | 1 | 0.00 |
| 56 | 05/31 | 17:00 | 84 | 68 | 60 | 29.89 | SSE | 11 | 0.00 |
| 57 | 05/31 | 16:00 | 86 | 71 | 62 | 29.90 | SSE | 11 | 0.00 |
| 58 | 05/31 | 15:00 | 85 | 68 | 58 | 29.93 | SSE | 11 | 0.00 |
| 59 | 05/31 | 14:00 | 85 | 66 | 54 | 29.95 | S | 9 | 0.00 |
| 60 | 05/31 | 13:00 | 85 | 66 | 54 | 29.98 | SSW | 11 | 0.00 |
| 61 | 05/31 | 12:00 | 83 | 68 | 62 | 30.00 | N | 0 | 0.00 |
| 62 | 05/31 | 11:00 | 80 | 69 | 70 | 30.01 | SSE | 5 | 0.00 |
| 63 | 05/31 | 10:00 | 78 | 70 | 78 | 30.02 | NE | 0 | 0.00 |
| 64 | 05/31 | 09:00 | 74 | 67 | 80 | 30.03 | SSW | 4 | 0.00 |
| 65 | 05/31 | 08:00 | 72 | 68 | 88 | 30.02 | SSE | 3 | 0.00 |
| 66 | 05/31 | 07:00 | 70 | 66 | 90 | 30.01 | S | 5 | 0.00 |
| 67 | 05/31 | 06:00 | 70 | 66 | 90 | 30.01 | SSW | 5 | 0.00 |
| 68 | 05/31 | 05:00 | 70 | 66 | 89 | 30.00 | S | 4 | 0.00 |
| 69 | 05/31 | 04:00 | 70 | 66 | 89 | 30.00 | S | 5 | 0.00 |